Time;durP1;ratioP1;P1;durP2;ratioP2;P2;SDS_P1;SDS_P2;PMS_P1;PMS_P2;Temp;Humidity;BMP_temperature;BMP_pressure;BME280_temperature;BME280_humidity;BME280_pressure;Samples;Min_cycle;Max_cycle;Signal;HPM_P1;HPM_P2
2022/07/01 00:02:15;;;;;;;13.82;10.48;;;;;;;;;;5115331;28;20206;-57
2022/07/01 00:04:45;;;;;;;11.80;10.48;;;;;;;;;;5115631;28;20300;-58
2022/07/01 00:07:30;;;;;;;13.85;10.63;;;;;;;;;;5115093;28;20586;-58
2022/07/01 00:09:57;;;;;;;12.35;10.57;;;;;;;;;;5115304;28;20202;-58
2022/07/01 00:12:24;;;;;;;11.65;10.45;;;;;;;;;;5115452;28;20209;-58
2022/07/01 00:14:52;;;;;;;12.07;10.65;;;;;;;;;;5115211;28;20213;-58
2022/07/01 00:17:18;;;;;;;12.05;10.82;;;;;;;;;;5115332;28;20201;-55
2022/07/01 00:19:45;;;;;;;11.82;10.60;;;;;;;;;;5114972;28;20225;-58
2022/07/01 00:22:12;;;;;;;13.75;10.55;;;;;;;;;;5114875;28;20222;-58
2022/07/01 00:24:39;;;;;;;13.07;11.00;;;;;;;;;;5114775;28;20209;-58
2022/07/01 00:27:06;;;;;;;15.70;11.13;;;;;;;;;;5115151;28;20217;-59
2022/07/01 00:29:34;;;;;;;11.88;10.25;;;;;;;;;;5115210;28;20190;-58
2022/07/01 00:32:01;;;;;;;14.25;11.05;;;;;;;;;;5115123;28;20540;-57
2022/07/01 00:34:28;;;;;;;12.02;10.63;;;;;;;;;;5114882;28;20202;-57
2022/07/01 00:36:56;;;;;;;12.43;11.07;;;;;;;;;;5115326;28;20284;-57
2022/07/01 00:39:22;;;;;;;14.43;11.57;;;;;;;;;;5115045;28;20290;-58
2022/07/01 00:41:49;;;;;;;13.05;10.75;;;;;;;;;;5115314;28;20533;-57
2022/07/01 00:44:22;;;;;;;14.15;11.35;;;;;;;;;;5114931;28;20243;-58
2022/07/01 00:46:50;;;;;;;14.55;11.18;;;;;;;;;;5115338;28;20213;-57
2022/07/01 00:49:18;;;;;;;13.25;11.10;;;;;;;;;;5115021;28;20626;-58
2022/07/01 00:51:45;;;;;;;13.85;11.68;;;;;;;;;;5114943;28;20205;-58
2022/07/01 00:54:12;;;;;;;12.23;11.02;;;;;;;;;;5114819;28;20230;-58
2022/07/01 00:56:39;;;;;;;13.70;11.88;;;;;;;;;;5079641;28;20198;-58
2022/07/01 00:59:07;;;;;;;13.90;11.40;;;;;;;;;;5114707;28;20201;-58
2022/07/01 01:01:34;;;;;;;14.02;11.40;;;;;;;;;;5114851;28;20252;-57
2022/07/01 01:04:01;;;;;;;17.08;11.73;;;;;;;;;;5127597;28;20213;-58
2022/07/01 01:06:29;;;;;;;15.98;11.50;;;;;;;;;;5129872;27;20201;-56
2022/07/01 01:08:56;;;;;;;14.80;11.80;;;;;;;;;;5114708;28;20529;-57
2022/07/01 01:11:23;;;;;;;13.27;11.57;;;;;;;;;;5114116;28;20201;-58
2022/07/01 01:13:50;;;;;;;12.40;11.10;;;;;;;;;;5114691;28;20205;-57
2022/07/01 01:16:21;;;;;;;13.65;11.82;;;;;;;;;;5114546;28;20194;-58
2022/07/01 01:18:49;;;;;;;15.20;11.77;;;;;;;;;;5114604;28;20273;-56
2022/07/01 01:21:16;;;;;;;13.07;11.45;;;;;;;;;;5115030;28;20231;-55
2022/07/01 01:23:43;;;;;;;15.90;10.93;;;;;;;;;;5124482;28;20217;-58
2022/07/01 01:26:21;;;;;;;13.95;10.95;;;;;;;;;;5136181;27;20216;-58
2022/07/01 01:28:49;;;;;;;18.10;11.60;;;;;;;;;;5135412;27;20193;-58
2022/07/01 01:31:16;;;;;;;16.42;11.80;;;;;;;;;;5135692;27;20215;-58
2022/07/01 01:33:44;;;;;;;13.57;11.55;;;;;;;;;;5135598;27;20514;-58
2022/07/01 01:36:11;;;;;;;13.60;10.57;;;;;;;;;;5135648;27;20209;-56
2022/07/01 01:38:38;;;;;;;13.63;11.02;;;;;;;;;;5135287;27;20614;-58
2022/07/01 01:41:05;;;;;;;13.20;11.77;;;;;;;;;;5135260;27;20228;-57
2022/07/01 01:43:35;;;;;;;13.43;11.07;;;;;;;;;;5135329;28;20225;-57
2022/07/01 01:46:03;;;;;;;13.15;11.73;;;;;;;;;;5135183;27;20584;-57
2022/07/01 01:48:31;;;;;;;16.55;11.75;;;;;;;;;;5135135;27;20197;-58
2022/07/01 01:50:58;;;;;;;13.63;12.05;;;;;;;;;;5135064;27;20197;-58
2022/07/01 01:53:25;;;;;;;14.00;10.80;;;;;;;;;;5135335;27;20235;-57
2022/07/01 01:55:53;;;;;;;14.18;11.18;;;;;;;;;;5135411;27;20581;-58
2022/07/01 01:58:20;;;;;;;16.48;11.88;;;;;;;;;;5135354;27;20197;-55
2022/07/01 02:00:51;;;;;;;13.98;11.60;;;;;;;;;;5135183;27;20297;-58
2022/07/01 02:03:18;;;;;;;14.05;12.10;;;;;;;;;;5135039;27;20221;-57
2022/07/01 02:05:45;;;;;;;15.98;11.65;;;;;;;;;;5135073;27;20201;-58
2022/07/01 02:08:13;;;;;;;13.95;12.45;;;;;;;;;;5136860;27;20201;-58
2022/07/01 02:10:40;;;;;;;15.77;11.93;;;;;;;;;;5138968;27;20203;-59
2022/07/01 02:13:07;;;;;;;17.23;12.60;;;;;;;;;;5138597;27;20281;-58
2022/07/01 02:15:34;;;;;;;12.68;11.32;;;;;;;;;;5138789;27;20566;-57
2022/07/01 02:18:01;;;;;;;15.18;12.82;;;;;;;;;;5138738;27;20197;-58
2022/07/01 02:20:28;;;;;;;15.77;12.43;;;;;;;;;;5138515;27;20213;-58
2022/07/01 02:22:55;;;;;;;13.77;12.07;;;;;;;;;;5138312;27;20266;-58
2022/07/01 02:25:21;;;;;;;17.83;12.32;;;;;;;;;;5138643;27;20703;-59
2022/07/01 02:27:49;;;;;;;14.38;12.27;;;;;;;;;;5138530;27;20671;-58
2022/07/01 02:30:16;;;;;;;13.88;12.23;;;;;;;;;;5138390;27;20288;-59
2022/07/01 02:32:42;;;;;;;13.93;12.25;;;;;;;;;;5138378;27;20201;-59
2022/07/01 02:35:10;;;;;;;12.95;11.55;;;;;;;;;;5138266;27;20201;-58
2022/07/01 02:37:37;;;;;;;15.43;12.48;;;;;;;;;;5138142;27;20284;-59
2022/07/01 02:40:04;;;;;;;15.45;11.70;;;;;;;;;;5138338;27;20614;-58
2022/07/01 02:42:35;;;;;;;16.15;11.90;;;;;;;;;;5138478;27;20212;-58
2022/07/01 02:45:04;;;;;;;13.70;12.20;;;;;;;;;;5138581;27;20274;-58
2022/07/01 02:47:35;;;;;;;14.77;12.80;;;;;;;;;;5120015;27;20691;-58
2022/07/01 02:50:04;;;;;;;14.38;11.95;;;;;;;;;;5138980;27;20189;-58
2022/07/01 02:52:32;;;;;;;14.50;12.43;;;;;;;;;;5138262;27;20201;-58
2022/07/01 02:54:59;;;;;;;14.35;12.27;;;;;;;;;;5138391;27;20220;-58
2022/07/01 02:57:26;;;;;;;13.98;12.48;;;;;;;;;;5138297;27;20205;-58
2022/07/01 02:59:53;;;;;;;16.60;12.40;;;;;;;;;;5137950;27;20553;-59
2022/07/01 03:02:20;;;;;;;15.75;12.60;;;;;;;;;;5138069;27;20220;-59
2022/07/01 03:04:48;;;;;;;14.27;12.82;;;;;;;;;;5138191;27;20274;-58
2022/07/01 03:07:16;;;;;;;15.60;13.20;;;;;;;;;;5138029;27;20228;-58
2022/07/01 03:09:43;;;;;;;13.85;12.45;;;;;;;;;;5137873;27;20495;-58
2022/07/01 03:12:29;;;;;;;16.83;12.68;;;;;;;;;;5137769;27;20205;-58
2022/07/01 03:14:58;;;;;;;15.90;12.55;;;;;;;;;;5137913;27;20248;-58
2022/07/01 03:17:27;;;;;;;13.57;12.18;;;;;;;;;;5137543;27;20209;-58
2022/07/01 03:19:54;;;;;;;15.45;13.05;;;;;;;;;;5137582;27;20205;-58
2022/07/01 03:22:24;;;;;;;14.98;13.40;;;;;;;;;;5137762;27;20637;-58
2022/07/01 03:24:52;;;;;;;19.15;13.68;;;;;;;;;;5137306;27;20225;-58
2022/07/01 03:27:20;;;;;;;22.23;12.90;;;;;;;;;;5137613;27;20201;-58
2022/07/01 03:29:47;;;;;;;17.20;13.50;;;;;;;;;;5137316;27;20205;-58
2022/07/01 03:32:14;;;;;;;15.25;13.07;;;;;;;;;;5137595;27;20201;-58
2022/07/01 03:34:44;;;;;;;18.05;14.15;;;;;;;;;;5137561;27;20205;-58
2022/07/01 03:37:12;;;;;;;18.38;13.77;;;;;;;;;;5137560;27;20198;-58
2022/07/01 03:39:40;;;;;;;16.27;12.98;;;;;;;;;;5137021;27;20208;-58
2022/07/01 03:42:08;;;;;;;20.00;13.43;;;;;;;;;;5137295;27;20296;-58
2022/07/01 03:44:36;;;;;;;16.98;13.07;;;;;;;;;;5137743;27;20217;-58
2022/07/01 03:47:07;;;;;;;14.55;13.02;;;;;;;;;;5136855;27;20216;-57
2022/07/01 03:49:35;;;;;;;16.73;13.27;;;;;;;;;;5137030;27;20221;-58
2022/07/01 03:52:03;;;;;;;17.92;13.07;;;;;;;;;;5137227;27;20201;-58
2022/07/01 03:54:30;;;;;;;18.45;13.02;;;;;;;;;;5137095;27;20205;-58
2022/07/01 03:57:01;;;;;;;17.10;13.23;;;;;;;;;;5137348;27;20201;-58
2022/07/01 03:59:29;;;;;;;15.07;12.48;;;;;;;;;;5136962;27;20229;-57
2022/07/01 04:01:57;;;;;;;18.67;13.60;;;;;;;;;;5136773;27;20206;-58
2022/07/01 04:04:25;;;;;;;16.75;12.50;;;;;;;;;;5136869;27;20563;-57
2022/07/01 04:06:53;;;;;;;16.02;13.93;;;;;;;;;;5137124;27;20207;-54
2022/07/01 04:09:21;;;;;;;16.23;13.43;;;;;;;;;;5136750;27;20197;-56
2022/07/01 04:11:49;;;;;;;17.92;12.73;;;;;;;;;;5136827;27;20202;-51
2022/07/01 04:14:16;;;;;;;14.23;12.73;;;;;;;;;;5124870;27;20550;-50
2022/07/01 04:16:46;;;;;;;16.92;13.13;;;;;;;;;;5123788;27;20224;-52
2022/07/01 04:19:14;;;;;;;15.18;13.07;;;;;;;;;;5136720;27;20257;-52
2022/07/01 04:24:28;;;;;;;17.42;12.55;;;;;;;;;;5136228;27;20660;-52
2022/07/01 04:26:55;;;;;;;16.52;12.63;;;;;;;;;;5137021;27;20270;-50
2022/07/01 04:29:22;;;;;;;14.68;12.95;;;;;;;;;;5129200;27;20201;-52
2022/07/01 04:31:49;;;;;;;15.73;12.63;;;;;;;;;;5115440;28;20275;-55
2022/07/01 04:34:16;;;;;;;14.85;12.65;;;;;;;;;;5115509;28;20605;-57
2022/07/01 04:36:43;;;;;;;14.35;12.70;;;;;;;;;;5115592;28;20296;-57
2022/07/01 04:39:11;;;;;;;13.73;12.32;;;;;;;;;;5115743;28;20201;-56
2022/07/01 04:44:23;;;;;;;14.55;12.20;;;;;;;;;;5129849;27;20220;-53
2022/07/01 04:46:50;;;;;;;15.45;12.10;;;;;;;;;;5135953;27;20223;-56
2022/07/01 04:49:17;;;;;;;15.75;12.68;;;;;;;;;;5136153;27;20216;-50
2022/07/01 04:51:45;;;;;;;14.85;12.35;;;;;;;;;;5136179;27;20208;-57
2022/07/01 04:54:12;;;;;;;17.65;13.50;;;;;;;;;;5136204;27;20254;-53
2022/07/01 04:56:39;;;;;;;18.45;12.63;;;;;;;;;;5135969;27;20254;-56
2022/07/01 04:59:14;;;;;;;15.27;11.82;;;;;;;;;;5135823;27;20196;-57
2022/07/01 05:01:42;;;;;;;14.52;12.30;;;;;;;;;;5136227;27;20201;-59
2022/07/01 05:04:10;;;;;;;12.85;11.52;;;;;;;;;;5115798;27;20253;-55
2022/07/01 05:06:38;;;;;;;13.00;11.55;;;;;;;;;;5115163;28;20631;-55
2022/07/01 05:09:05;;;;;;;14.00;11.50;;;;;;;;;;5114899;27;20298;-58
2022/07/01 05:11:32;;;;;;;13.85;11.63;;;;;;;;;;5128548;27;20213;-58
2022/07/01 05:13:59;;;;;;;13.77;11.48;;;;;;;;;;5135258;27;20221;-50
2022/07/01 05:16:26;;;;;;;15.07;12.57;;;;;;;;;;5136017;27;20231;-58
2022/07/01 05:24:28;;;;;;;15.80;10.85;;;;;;;;;;5129939;27;20229;-57
2022/07/01 05:26:55;;;;;;;14.10;11.95;;;;;;;;;;5132353;27;20213;-59
2022/07/01 05:29:22;;;;;;;14.52;11.10;;;;;;;;;;5131929;27;20221;-56
2022/07/01 05:31:49;;;;;;;14.98;11.52;;;;;;;;;;5129244;27;20220;-55
2022/07/01 05:34:17;;;;;;;15.05;11.38;;;;;;;;;;5130921;28;20593;-53
2022/07/01 05:36:43;;;;;;;13.90;11.20;;;;;;;;;;5133471;27;20241;-56
2022/07/01 05:39:11;;;;;;;14.38;10.52;;;;;;;;;;5133095;27;20231;-48
2022/07/01 05:41:39;;;;;;;13.13;10.65;;;;;;;;;;5131494;27;20266;-49
2022/07/01 05:44:05;;;;;;;14.50;11.70;;;;;;;;;;5136103;27;20233;-50
2022/07/01 05:46:33;;;;;;;13.77;11.15;;;;;;;;;;5135403;27;20228;-46
2022/07/01 05:49:00;;;;;;;11.55;10.35;;;;;;;;;;5118116;28;20256;-46
2022/07/01 05:51:27;;;;;;;12.32;10.45;;;;;;;;;;5117940;27;20320;-48
2022/07/01 05:53:56;;;;;;;11.45;9.93;;;;;;;;;;5119976;27;20290;-46
2022/07/01 05:56:23;;;;;;;13.45;10.05;;;;;;;;;;5159203;27;20220;-47
2022/07/01 05:58:51;;;;;;;11.68;10.20;;;;;;;;;;5126999;27;20230;-49
2022/07/01 06:01:18;;;;;;;13.55;10.70;;;;;;;;;;5138126;27;20328;-46
2022/07/01 06:03:45;;;;;;;15.02;10.70;;;;;;;;;;5138013;27;20282;-51
2022/07/01 06:06:12;;;;;;;11.40;10.20;;;;;;;;;;5138125;27;20229;-49
2022/07/01 06:08:39;;;;;;;18.13;10.52;;;;;;;;;;5138052;27;20278;-47
2022/07/01 06:11:06;;;;;;;13.18;10.45;;;;;;;;;;5137804;27;20545;-46
2022/07/01 06:13:33;;;;;;;13.80;10.57;;;;;;;;;;5138199;27;20270;-50
2022/07/01 06:16:01;;;;;;;12.48;10.68;;;;;;;;;;5137706;27;20249;-47
2022/07/01 06:18:28;;;;;;;11.95;10.27;;;;;;;;;;5137941;27;20610;-47
2022/07/01 06:20:55;;;;;;;11.50;10.32;;;;;;;;;;5137753;27;20217;-48
2022/07/01 06:23:22;;;;;;;11.75;10.27;;;;;;;;;;5137464;27;20282;-48
2022/07/01 06:25:49;;;;;;;12.65;11.07;;;;;;;;;;5137737;27;20237;-47
2022/07/01 06:28:16;;;;;;;15.57;11.27;;;;;;;;;;5137732;27;20282;-46
2022/07/01 06:30:43;;;;;;;15.35;11.23;;;;;;;;;;5137665;27;20689;-47
2022/07/01 06:33:12;;;;;;;15.63;11.07;;;;;;;;;;5137391;27;20213;-49
2022/07/01 06:35:39;;;;;;;16.15;11.23;;;;;;;;;;5137994;27;20237;-47
2022/07/01 06:38:06;;;;;;;14.55;11.75;;;;;;;;;;5136820;27;20597;-50
2022/07/01 06:40:34;;;;;;;13.63;11.20;;;;;;;;;;5131740;27;20225;-49
2022/07/01 06:43:01;;;;;;;13.10;11.30;;;;;;;;;;5144822;27;20780;-48
2022/07/01 06:45:28;;;;;;;12.35;10.43;;;;;;;;;;5136336;27;20298;-49
2022/07/01 06:47:55;;;;;;;12.65;10.43;;;;;;;;;;5136787;27;20542;-48
2022/07/01 06:50:22;;;;;;;14.27;10.73;;;;;;;;;;5142806;27;20227;-49
2022/07/01 06:52:49;;;;;;;11.98;9.38;;;;;;;;;;5144665;27;20304;-48
2022/07/01 06:55:16;;;;;;;11.02;9.63;;;;;;;;;;5157056;27;20661;-47
2022/07/01 06:57:43;;;;;;;11.27;9.60;;;;;;;;;;5158213;27;20235;-51
2022/07/01 07:00:10;;;;;;;12.52;9.73;;;;;;;;;;5157546;27;20232;-54
2022/07/01 07:02:37;;;;;;;11.52;9.50;;;;;;;;;;5150405;27;20217;-50
2022/07/01 07:05:05;;;;;;;14.77;8.82;;;;;;;;;;5135204;27;20221;-49
2022/07/01 07:07:32;;;;;;;12.93;9.75;;;;;;;;;;5135411;27;20292;-45
2022/07/01 07:09:59;;;;;;;10.25;9.20;;;;;;;;;;5135327;27;20273;-47
2022/07/01 07:12:26;;;;;;;14.52;9.27;;;;;;;;;;5135129;27;20213;-47
2022/07/01 07:14:53;;;;;;;13.48;9.73;;;;;;;;;;5135812;27;20294;-48
2022/07/01 07:17:20;;;;;;;11.30;9.60;;;;;;;;;;5134988;27;20322;-48
2022/07/01 07:19:47;;;;;;;15.32;10.38;;;;;;;;;;5135875;27;20241;-50
2022/07/01 07:22:14;;;;;;;15.68;9.95;;;;;;;;;;5131804;27;20217;-49
2022/07/01 07:24:42;;;;;;;14.48;9.10;;;;;;;;;;5134684;27;20229;-45
2022/07/01 07:27:09;;;;;;;13.90;10.30;;;;;;;;;;5135030;27;20224;-48
2022/07/01 07:29:36;;;;;;;10.15;8.88;;;;;;;;;;5132637;27;20237;-47
2022/07/01 07:32:03;;;;;;;11.38;9.80;;;;;;;;;;5135007;27;20217;-47
2022/07/01 07:34:30;;;;;;;12.80;9.25;;;;;;;;;;5136151;27;20290;-50
2022/07/01 07:36:58;;;;;;;10.80;9.15;;;;;;;;;;5135358;27;20312;-50
2022/07/01 07:39:25;;;;;;;14.13;9.77;;;;;;;;;;5132094;27;20212;-47
2022/07/01 07:41:59;;;;;;;12.95;9.50;;;;;;;;;;5133779;27;20245;-53
2022/07/01 07:44:27;;;;;;;10.07;8.95;;;;;;;;;;5132267;27;20250;-47
2022/07/01 07:46:54;;;;;;;10.57;8.52;;;;;;;;;;5134323;27;20316;-45
2022/07/01 07:49:21;;;;;;;11.23;8.80;;;;;;;;;;5133640;27;20218;-48
2022/07/01 07:51:48;;;;;;;11.25;8.27;;;;;;;;;;5134775;27;20233;-48
2022/07/01 07:54:15;;;;;;;8.70;7.80;;;;;;;;;;5134388;27;20224;-46
2022/07/01 07:56:42;;;;;;;10.40;7.50;;;;;;;;;;5135828;27;20326;-52
2022/07/01 07:59:12;;;;;;;11.65;8.75;;;;;;;;;;5130910;27;20208;-48
2022/07/01 08:01:39;;;;;;;13.25;8.07;;;;;;;;;;5131342;27;20221;-51
2022/07/01 08:04:06;;;;;;;9.32;8.23;;;;;;;;;;5133257;27;20541;-48
2022/07/01 08:06:34;;;;;;;10.82;8.23;;;;;;;;;;5134956;27;20221;-51
2022/07/01 08:09:01;;;;;;;7.88;7.15;;;;;;;;;;5130553;27;20206;-46
2022/07/01 08:11:28;;;;;;;10.57;8.00;;;;;;;;;;5134519;27;20661;-47
2022/07/01 08:13:55;;;;;;;11.23;7.30;;;;;;;;;;5132971;27;20189;-49
2022/07/01 08:16:22;;;;;;;8.68;7.88;;;;;;;;;;5135298;27;20197;-48
2022/07/01 08:18:49;;;;;;;11.57;7.57;;;;;;;;;;5134773;27;20198;-48
2022/07/01 08:21:17;;;;;;;11.68;7.57;;;;;;;;;;5135280;27;20189;-48
2022/07/01 08:23:44;;;;;;;9.27;7.72;;;;;;;;;;5136038;27;20204;-49
2022/07/01 08:26:14;;;;;;;9.05;7.82;;;;;;;;;;5134121;27;20222;-48
2022/07/01 08:28:43;;;;;;;8.68;7.78;;;;;;;;;;5125033;27;20202;-47
2022/07/01 08:31:10;;;;;;;9.23;7.75;;;;;;;;;;5115064;28;20210;-48
2022/07/01 08:33:37;;;;;;;12.18;7.50;;;;;;;;;;5115679;27;20206;-47
2022/07/01 08:36:05;;;;;;;8.50;7.60;;;;;;;;;;5115668;28;20213;-47
2022/07/01 08:38:33;;;;;;;8.40;7.40;;;;;;;;;;5114795;28;20202;-49
2022/07/01 08:41:01;;;;;;;12.40;7.55;;;;;;;;;;5115661;28;20541;-46
2022/07/01 08:43:28;;;;;;;12.50;8.00;;;;;;;;;;5126911;27;20578;-41
2022/07/01 08:45:58;;;;;;;12.27;7.63;;;;;;;;;;5122163;27;20654;-45
2022/07/01 08:48:25;;;;;;;11.25;7.47;;;;;;;;;;5128292;27;20205;-46
2022/07/01 08:50:52;;;;;;;8.40;7.00;;;;;;;;;;5131931;27;20534;-47
2022/07/01 08:53:19;;;;;;;9.40;7.22;;;;;;;;;;5134554;27;20201;-46
2022/07/01 08:58:32;;;;;;;12.27;7.43;;;;;;;;;;5131845;27;20549;-49
2022/07/01 09:01:23;;;;;;;7.75;6.60;;;;;;;;;;5134533;27;20281;-46
2022/07/01 09:03:54;;;;;;;9.52;7.80;;;;;;;;;;5129360;27;20645;-44
2022/07/01 09:06:28;;;;;;;7.93;7.10;;;;;;;;;;5132848;27;20680;-49
2022/07/01 09:09:13;;;;;;;9.85;7.15;;;;;;;;;;5133837;28;20230;-47
2022/07/01 09:11:53;;;;;;;9.68;7.93;;;;;;;;;;5118241;27;20198;-46
2022/07/01 09:14:22;;;;;;;9.15;7.85;;;;;;;;;;5115158;28;20206;-45
2022/07/01 09:16:54;;;;;;;8.30;7.30;;;;;;;;;;5118547;27;20301;-48
2022/07/01 09:19:22;;;;;;;11.68;7.35;;;;;;;;;;5138056;27;20185;-45
2022/07/01 09:22:00;;;;;;;13.52;7.13;;;;;;;;;;5139680;27;20201;-46
2022/07/01 09:24:48;;;;;;;7.75;6.65;;;;;;;;;;5139547;27;20507;-46
2022/07/01 09:27:17;;;;;;;10.25;7.70;;;;;;;;;;5139592;27;20197;-48
2022/07/01 09:29:45;;;;;;;8.50;7.47;;;;;;;;;;5139502;27;20266;-45
2022/07/01 09:32:16;;;;;;;13.00;7.45;;;;;;;;;;5139811;27;20246;-45
2022/07/01 09:34:46;;;;;;;9.35;7.45;;;;;;;;;;5139805;27;20276;-45
2022/07/01 09:37:15;;;;;;;16.13;8.57;;;;;;;;;;5139548;27;20594;-45
2022/07/01 09:39:50;;;;;;;9.55;6.82;;;;;;;;;;5139592;27;20197;-46
2022/07/01 09:42:19;;;;;;;11.73;7.78;;;;;;;;;;5139459;27;20626;-44
2022/07/01 09:44:57;;;;;;;10.20;7.53;;;;;;;;;;5132712;27;20200;-44
2022/07/01 09:47:30;;;;;;;9.60;7.70;;;;;;;;;;5139180;27;20515;-45
2022/07/01 09:49:57;;;;;;;10.20;8.15;;;;;;;;;;5138094;27;20545;-48
2022/07/01 09:52:25;;;;;;;11.77;7.70;;;;;;;;;;5137932;27;20197;-44
2022/07/01 09:54:52;;;;;;;11.77;7.90;;;;;;;;;;5139100;27;20557;-46
2022/07/01 09:57:21;;;;;;;8.77;7.40;;;;;;;;;;5139227;27;20277;-45
2022/07/01 09:59:49;;;;;;;11.35;8.27;;;;;;;;;;5139491;27;20238;-44
2022/07/01 10:02:21;;;;;;;9.35;7.47;;;;;;;;;;5139481;27;20536;-44
2022/07/01 10:04:51;;;;;;;8.73;7.60;;;;;;;;;;5139355;27;20521;-44
2022/07/01 10:07:37;;;;;;;7.72;6.93;;;;;;;;;;5139420;27;20276;-44
2022/07/01 10:10:35;;;;;;;9.63;7.65;;;;;;;;;;5138945;27;20194;-44
2022/07/01 10:13:03;;;;;;;8.13;7.32;;;;;;;;;;5138229;27;20216;-45
2022/07/01 10:15:30;;;;;;;7.82;7.03;;;;;;;;;;5138817;27;20618;-44
2022/07/01 10:17:57;;;;;;;7.75;6.90;;;;;;;;;;5138073;27;20205;-44
2022/07/01 10:20:29;;;;;;;8.77;7.63;;;;;;;;;;5139012;27;20243;-44
2022/07/01 10:23:04;;;;;;;8.05;7.28;;;;;;;;;;5138781;27;20231;-44
2022/07/01 10:25:33;;;;;;;9.30;7.25;;;;;;;;;;5138803;27;20653;-44
2022/07/01 10:28:13;;;;;;;10.93;7.40;;;;;;;;;;5138222;27;20198;-44
2022/07/01 10:30:54;;;;;;;10.35;7.47;;;;;;;;;;5139092;27;20332;-45
2022/07/01 10:33:31;;;;;;;13.65;7.25;;;;;;;;;;5138576;27;20201;-44
2022/07/01 10:36:12;;;;;;;8.40;7.15;;;;;;;;;;5138823;27;20215;-45
2022/07/01 10:41:33;;;;;;;9.80;7.03;;;;;;;;;;5138575;27;20205;-44
2022/07/01 10:44:06;;;;;;;10.00;7.93;;;;;;;;;;5138644;27;20635;-47
2022/07/01 10:46:56;;;;;;;8.38;6.70;;;;;;;;;;5138609;27;20224;-44
2022/07/01 10:49:35;;;;;;;9.80;7.10;;;;;;;;;;5138250;27;20197;-44
2022/07/01 10:52:07;;;;;;;11.45;7.05;;;;;;;;;;5138761;27;20189;-44
2022/07/01 10:54:43;;;;;;;7.30;6.63;;;;;;;;;;5138399;27;20182;-45
2022/07/01 10:57:19;;;;;;;7.47;6.75;;;;;;;;;;5138480;27;20196;-44
2022/07/01 10:59:48;;;;;;;7.95;6.80;;;;;;;;;;5137943;27;20240;-44
2022/07/01 11:02:29;;;;;;;8.63;6.18;;;;;;;;;;5138806;27;20197;-44
2022/07/01 11:04:58;;;;;;;7.20;6.05;;;;;;;;;;5138451;27;20182;-44
2022/07/01 11:07:34;;;;;;;6.40;5.80;;;;;;;;;;5138190;27;20221;-44
2022/07/01 11:10:04;;;;;;;6.68;6.07;;;;;;;;;;5138133;27;20204;-43
2022/07/01 11:12:31;;;;;;;6.70;5.97;;;;;;;;;;5138301;27;20266;-45
2022/07/01 11:15:01;;;;;;;10.55;5.93;;;;;;;;;;5137663;27;20246;-45
2022/07/01 11:17:28;;;;;;;7.28;6.53;;;;;;;;;;5137941;27;20205;-44
2022/07/01 11:19:57;;;;;;;8.00;5.80;;;;;;;;;;5138235;27;20265;-44
2022/07/01 11:22:30;;;;;;;8.00;6.25;;;;;;;;;;5137414;27;20621;-43
2022/07/01 11:24:59;;;;;;;7.53;6.00;;;;;;;;;;5138080;27;20205;-44
2022/07/01 11:27:28;;;;;;;6.85;5.82;;;;;;;;;;5136591;27;20221;-44
2022/07/01 11:29:59;;;;;;;8.93;5.97;;;;;;;;;;5137883;27;20232;-44
2022/07/01 11:32:32;;;;;;;6.65;5.93;;;;;;;;;;5137717;27;20230;-43
2022/07/01 11:35:00;;;;;;;6.82;6.13;;;;;;;;;;5137612;27;20328;-43
2022/07/01 11:40:18;;;;;;;7.07;6.00;;;;;;;;;;5136446;27;20622;-43
2022/07/01 11:42:45;;;;;;;9.65;5.72;;;;;;;;;;5137472;27;20197;-43
2022/07/01 11:45:23;;;;;;;6.10;5.50;;;;;;;;;;5137045;27;20701;-44
2022/07/01 11:47:51;;;;;;;8.52;5.45;;;;;;;;;;5137319;27;20618;-43
2022/07/01 11:50:18;;;;;;;5.95;5.35;;;;;;;;;;5137244;27;20506;-44
2022/07/01 11:52:45;;;;;;;8.45;5.63;;;;;;;;;;5137264;27;20205;-44
2022/07/01 11:55:12;;;;;;;6.40;5.80;;;;;;;;;;5137055;27;20209;-45
2022/07/01 11:57:59;;;;;;;5.90;5.00;;;;;;;;;;5136952;27;20204;-43
2022/07/01 12:00:33;;;;;;;6.85;5.28;;;;;;;;;;5136894;27;20229;-44
2022/07/01 12:02:59;;;;;;;6.63;5.10;;;;;;;;;;5137023;27;20284;-44
2022/07/01 12:05:27;;;;;;;5.78;5.18;;;;;;;;;;5136644;27;20567;-44
2022/07/01 12:07:54;;;;;;;8.30;5.88;;;;;;;;;;5136896;27;20261;-44
2022/07/01 12:10:27;;;;;;;8.95;5.43;;;;;;;;;;5136921;27;20209;-46
2022/07/01 12:12:55;;;;;;;7.15;4.97;;;;;;;;;;5130793;27;20209;-43
2022/07/01 12:15:22;;;;;;;6.43;5.10;;;;;;;;;;5135782;27;20237;-45
2022/07/01 12:17:49;;;;;;;6.32;5.25;;;;;;;;;;5135637;27;20596;-44
2022/07/01 12:20:31;;;;;;;9.30;5.57;;;;;;;;;;5135444;27;20534;-45
2022/07/01 12:23:14;;;;;;;8.77;5.47;;;;;;;;;;5150857;27;20228;-44
2022/07/01 12:25:49;;;;;;;6.07;5.47;;;;;;;;;;5135558;27;20213;-46
2022/07/01 12:28:26;;;;;;;10.93;5.78;;;;;;;;;;5130477;27;20209;-44
2022/07/01 12:31:03;;;;;;;6.18;5.43;;;;;;;;;;5134665;27;20535;-46
2022/07/01 12:33:30;;;;;;;10.90;5.18;;;;;;;;;;5133785;27;20571;-45
2022/07/01 12:36:00;;;;;;;6.43;5.82;;;;;;;;;;5131076;27;20189;-45
2022/07/01 12:38:27;;;;;;;6.45;5.15;;;;;;;;;;5135232;27;20189;-45
2022/07/01 12:40:54;;;;;;;8.65;5.95;;;;;;;;;;5134896;27;20208;-47
2022/07/01 12:43:30;;;;;;;6.18;5.10;;;;;;;;;;5133083;27;20512;-45
2022/07/01 12:45:58;;;;;;;6.78;5.15;;;;;;;;;;5133692;27;20205;-45
2022/07/01 12:48:25;;;;;;;5.68;5.07;;;;;;;;;;5132780;27;20199;-48
2022/07/01 12:50:54;;;;;;;5.43;4.93;;;;;;;;;;5138337;27;20226;-45
2022/07/01 12:53:23;;;;;;;6.15;5.25;;;;;;;;;;5149933;27;20273;-47
2022/07/01 12:55:55;;;;;;;7.28;5.68;;;;;;;;;;5134717;27;20197;-45
2022/07/01 12:58:26;;;;;;;8.27;5.45;;;;;;;;;;5128393;27;20289;-47
2022/07/01 13:00:55;;;;;;;6.07;5.40;;;;;;;;;;5133376;27;20225;-46
2022/07/01 13:03:25;;;;;;;8.75;5.75;;;;;;;;;;5122746;27;20289;-49
2022/07/01 13:05:54;;;;;;;6.68;5.28;;;;;;;;;;5132590;27;20342;-46
2022/07/01 13:08:22;;;;;;;5.97;4.90;;;;;;;;;;5133928;27;20281;-47
2022/07/01 13:10:49;;;;;;;6.57;5.00;;;;;;;;;;5135120;27;20244;-46
2022/07/01 13:13:20;;;;;;;6.05;5.43;;;;;;;;;;5139194;27;20724;-46
2022/07/01 13:15:47;;;;;;;7.07;5.63;;;;;;;;;;5130496;27;20614;-47
2022/07/01 13:18:14;;;;;;;6.00;5.03;;;;;;;;;;5137014;27;20221;-46
2022/07/01 13:20:42;;;;;;;8.50;5.60;;;;;;;;;;5133415;27;20223;-47
2022/07/01 13:23:09;;;;;;;9.93;5.32;;;;;;;;;;5139183;27;20231;-45
2022/07/01 13:25:37;;;;;;;7.68;5.47;;;;;;;;;;5136014;27;20251;-46
2022/07/01 13:28:04;;;;;;;5.50;4.97;;;;;;;;;;5132589;28;20281;-47
2022/07/01 13:30:32;;;;;;;6.18;5.10;;;;;;;;;;5133464;27;20252;-53
2022/07/01 13:32:59;;;;;;;6.07;4.90;;;;;;;;;;5132679;27;20661;-47
2022/07/01 13:35:26;;;;;;;8.60;5.20;;;;;;;;;;5130482;27;20532;-47
2022/07/01 13:37:53;;;;;;;7.35;5.43;;;;;;;;;;5133282;27;20228;-50
2022/07/01 13:40:21;;;;;;;5.95;5.35;;;;;;;;;;5133364;27;20229;-45
2022/07/01 13:42:49;;;;;;;7.53;4.95;;;;;;;;;;5133706;27;20213;-47
2022/07/01 13:45:16;;;;;;;5.63;5.13;;;;;;;;;;5133228;27;20220;-50
2022/07/01 13:47:43;;;;;;;7.18;5.28;;;;;;;;;;5132708;27;20302;-49
2022/07/01 13:50:10;;;;;;;5.70;5.15;;;;;;;;;;5135261;27;20538;-45
2022/07/01 13:52:38;;;;;;;5.30;4.80;;;;;;;;;;5134348;27;20225;-47
2022/07/01 13:55:12;;;;;;;6.32;5.05;;;;;;;;;;5133571;27;20221;-46
2022/07/01 13:57:39;;;;;;;10.50;5.03;;;;;;;;;;5150762;27;20220;-48
2022/07/01 14:00:07;;;;;;;8.73;4.85;;;;;;;;;;5148999;27;20225;-47
2022/07/01 14:02:34;;;;;;;5.68;4.90;;;;;;;;;;5133404;27;20248;-46
2022/07/01 14:05:02;;;;;;;6.25;5.40;;;;;;;;;;5136846;27;20201;-47
2022/07/01 14:07:29;;;;;;;5.85;4.53;;;;;;;;;;5137718;27;20213;-49
2022/07/01 14:09:56;;;;;;;6.72;5.78;;;;;;;;;;5137895;27;20213;-46
2022/07/01 14:12:23;;;;;;;6.15;4.90;;;;;;;;;;5139081;27;20278;-47
2022/07/01 14:14:57;;;;;;;7.00;5.07;;;;;;;;;;5138899;27;20197;-49
2022/07/01 14:17:25;;;;;;;7.75;5.03;;;;;;;;;;5136104;27;20227;-48
2022/07/01 14:19:53;;;;;;;6.82;4.97;;;;;;;;;;5138968;27;20356;-47
2022/07/01 14:22:19;;;;;;;5.75;5.15;;;;;;;;;;5137402;27;20681;-48
2022/07/01 14:24:47;;;;;;;5.57;4.95;;;;;;;;;;5137649;27;20263;-46
2022/07/01 14:27:14;;;;;;;6.35;4.55;;;;;;;;;;5136886;27;20225;-46
2022/07/01 14:29:41;;;;;;;8.95;4.47;;;;;;;;;;5136508;27;20250;-47
2022/07/01 14:32:08;;;;;;;5.13;4.63;;;;;;;;;;5134867;27;20204;-48
2022/07/01 14:34:35;;;;;;;7.18;4.85;;;;;;;;;;5137949;27;20652;-47
2022/07/01 14:37:03;;;;;;;5.00;4.50;;;;;;;;;;5138349;27;20217;-49
2022/07/01 14:39:30;;;;;;;5.90;4.85;;;;;;;;;;5138829;27;20563;-49
2022/07/01 14:41:57;;;;;;;9.15;5.78;;;;;;;;;;5138276;27;20205;-46
2022/07/01 14:44:23;;;;;;;6.85;4.85;;;;;;;;;;5138559;27;20205;-46
2022/07/01 14:46:51;;;;;;;5.97;4.45;;;;;;;;;;5138401;27;20286;-46
2022/07/01 14:49:18;;;;;;;6.30;4.82;;;;;;;;;;5138398;27;20193;-47
2022/07/01 14:51:45;;;;;;;6.13;4.82;;;;;;;;;;5138868;27;20217;-46
2022/07/01 14:54:12;;;;;;;5.40;4.50;;;;;;;;;;5138362;27;20254;-45
2022/07/01 14:56:39;;;;;;;9.10;4.80;;;;;;;;;;5138456;27;20528;-47
2022/07/01 14:59:06;;;;;;;5.32;4.82;;;;;;;;;;5138275;27;20208;-46